Time;durP1;ratioP1;P1;durP2;ratioP2;P2;SDS_P1;SDS_P2;PMS_P1;PMS_P2;Temp;Humidity;BMP_temperature;BMP_pressure;BME280_temperature;BME280_humidity;BME280_pressure;Samples;Min_cycle;Max_cycle;Signal;HPM_P1;HPM_P2
2022/08/08 00:01:48;;;;;;;3.03;1.52;;;21.50;69.30;;;;;;5053126;28;20524;-75
2022/08/08 00:04:36;;;;;;;4.43;1.75;;;21.60;69.20;;;;;;5053403;28;20032;-75
2022/08/08 00:07:28;;;;;;;3.92;1.60;;;21.60;69.10;;;;;;5053386;28;20037;-75
2022/08/08 00:10:19;;;;;;;1.67;1.13;;;21.60;69.10;;;;;;5052958;28;20025;-75
2022/08/08 00:13:00;;;;;;;2.72;1.60;;;21.60;68.90;;;;;;5043310;28;20040;-75
2022/08/08 00:15:34;;;;;;;3.05;1.15;;;21.60;68.90;;;;;;5053371;28;20036;-75
2022/08/08 00:18:16;;;;;;;4.93;1.40;;;21.70;68.70;;;;;;5052993;28;20522;-75
2022/08/08 00:20:58;;;;;;;3.10;1.33;;;21.70;68.70;;;;;;5052803;28;20025;-75
2022/08/08 00:23:45;;;;;;;3.00;1.45;;;21.80;68.60;;;;;;5052777;28;20484;-75
2022/08/08 00:26:16;;;;;;;3.45;1.25;;;21.80;68.50;;;;;;5052995;28;20025;-74
2022/08/08 00:28:48;;;;;;;3.67;1.77;;;21.80;68.60;;;;;;5052974;28;20029;-76
2022/08/08 00:31:20;;;;;;;3.47;1.50;;;21.70;68.60;;;;;;5052868;28;20029;-76
2022/08/08 00:33:50;;;;;;;;;;;21.70;68.80;;;;;;5053495;28;20123;-75
2022/08/08 00:36:27;;;;;;;2.63;1.33;;;21.70;68.80;;;;;;5052872;28;20403;-75
2022/08/08 00:39:09;;;;;;;2.92;1.40;;;21.70;68.70;;;;;;5053095;28;20427;-75
2022/08/08 00:41:37;;;;;;;3.03;1.17;;;21.70;68.70;;;;;;5052598;28;20029;-75
2022/08/08 00:44:40;;;;;;;3.78;1.20;;;21.70;68.80;;;;;;5053020;28;20032;-75
2022/08/08 00:47:43;;;;;;;3.78;1.38;;;21.70;68.70;;;;;;5052726;28;20472;-75
2022/08/08 00:50:24;;;;;;;3.78;1.52;;;21.70;68.90;;;;;;5052708;28;20041;-75
2022/08/08 00:53:36;;;;;;;2.45;1.58;;;21.60;69.00;;;;;;5052856;28;20020;-76
2022/08/08 00:56:21;;;;;;;2.00;1.15;;;21.70;69.20;;;;;;5052750;28;20029;-75
2022/08/08 00:59:07;;;;;;;4.75;1.70;;;21.70;69.00;;;;;;5052559;28;20029;-76
2022/08/08 01:01:55;;;;;;;2.83;1.50;;;21.60;69.00;;;;;;5041237;28;20033;-76
2022/08/08 01:04:42;;;;;;;2.60;1.27;;;21.70;69.00;;;;;;5052304;28;20029;-75
2022/08/08 01:07:35;;;;;;;4.80;1.35;;;21.70;69.10;;;;;;5052717;28;20087;-76
2022/08/08 01:10:23;;;;;;;2.78;1.20;;;21.60;69.10;;;;;;5056468;28;20024;-76
2022/08/08 01:13:28;;;;;;;3.17;1.40;;;21.70;69.20;;;;;;5056106;28;20380;-76
2022/08/08 01:16:21;;;;;;;2.15;1.05;;;21.70;69.30;;;;;;5056175;28;20376;-76
2022/08/08 01:19:11;;;;;;;2.83;1.35;;;21.70;69.20;;;;;;5056336;28;20036;-76
2022/08/08 01:22:00;;;;;;;2.97;1.27;;;21.60;69.10;;;;;;5056043;28;20040;-76
2022/08/08 01:24:34;;;;;;;3.20;1.33;;;21.60;69.20;;;;;;5055918;28;20072;-76
2022/08/08 01:27:23;;;;;;;5.72;1.10;;;21.60;69.20;;;;;;5055913;28;20067;-76
2022/08/08 01:30:00;;;;;;;2.95;1.55;;;21.60;69.20;;;;;;5056162;28;20025;-75
2022/08/08 01:33:04;;;;;;;5.22;1.75;;;21.60;69.20;;;;;;5055717;28;20473;-76
2022/08/08 01:36:02;;;;;;;2.28;1.30;;;21.60;69.50;;;;;;5056018;28;20048;-77
2022/08/08 01:38:40;;;;;;;2.97;1.63;;;21.60;69.50;;;;;;5046741;28;20112;-74
2022/08/08 01:41:23;;;;;;;3.67;1.30;;;21.60;69.30;;;;;;5055712;28;20033;-76
2022/08/08 01:44:00;;;;;;;3.05;1.73;;;21.60;69.50;;;;;;5055414;28;20071;-75
2022/08/08 01:46:44;;;;;;;3.35;1.42;;;21.60;69.50;;;;;;5055680;28;20036;-75
2022/08/08 01:49:42;;;;;;;2.60;1.80;;;21.50;69.40;;;;;;5055721;28;20025;-75
2022/08/08 01:52:40;;;;;;;3.22;1.70;;;21.60;69.60;;;;;;5055373;28;20021;-75
2022/08/08 01:55:21;;;;;;;4.03;1.73;;;21.50;69.90;;;;;;5055029;28;20032;-75
2022/08/08 01:58:27;;;;;;;3.08;1.60;;;21.60;69.60;;;;;;5055630;28;20120;-75
2022/08/08 02:01:19;;;;;;;2.53;1.27;;;21.60;69.70;;;;;;5055112;28;20025;-76
2022/08/08 02:04:05;;;;;;;1.70;1.33;;;21.50;69.80;;;;;;5052564;28;20029;-75
2022/08/08 02:07:00;;;;;;;2.97;1.63;;;21.50;69.80;;;;;;5055053;28;20025;-76
2022/08/08 02:09:49;;;;;;;2.88;1.13;;;21.50;70.60;;;;;;5055486;28;20110;-76
2022/08/08 02:12:24;;;;;;;4.93;1.45;;;21.50;69.90;;;;;;5055417;28;20100;-76
2022/08/08 02:15:08;;;;;;;3.47;1.88;;;21.40;70.00;;;;;;5055049;28;20480;-76
2022/08/08 02:17:45;;;;;;;3.42;1.60;;;21.40;70.10;;;;;;5055233;28;20067;-76
2022/08/08 02:20:17;;;;;;;2.35;1.63;;;21.40;70.20;;;;;;5054452;28;20029;-75
2022/08/08 02:22:54;;;;;;;8.18;1.60;;;21.30;70.30;;;;;;5055101;28;20021;-76
2022/08/08 02:25:28;;;;;;;4.72;2.20;;;21.30;70.40;;;;;;5054675;28;20106;-76
2022/08/08 02:28:04;;;;;;;2.90;1.70;;;21.30;70.60;;;;;;5054704;28;20379;-76
2022/08/08 02:31:07;;;;;;;4.10;1.75;;;21.20;70.80;;;;;;5055016;28;20431;-75
2022/08/08 02:33:49;;;;;;;4.28;1.40;;;21.10;70.90;;;;;;5054645;28;20457;-75
2022/08/08 02:36:17;;;;;;;3.90;1.25;;;21.10;70.90;;;;;;5054765;28;20472;-75
2022/08/08 02:39:07;;;;;;;4.32;1.88;;;21.10;71.00;;;;;;5054738;28;20404;-75
2022/08/08 02:41:42;;;;;;;2.10;1.40;;;21.10;71.00;;;;;;5050431;28;20063;-75
2022/08/08 02:44:32;;;;;;;4.53;1.52;;;21.10;70.90;;;;;;5054598;28;20025;-75
2022/08/08 02:47:08;;;;;;;3.85;1.45;;;21.10;70.90;;;;;;5054515;28;20036;-75
2022/08/08 02:50:04;;;;;;;4.47;1.90;;;21.10;70.90;;;;;;5054495;28;20020;-75
2022/08/08 02:52:43;;;;;;;2.90;1.50;;;21.10;71.10;;;;;;5054276;28;20083;-75
2022/08/08 02:55:47;;;;;;;2.85;1.25;;;21.10;71.10;;;;;;5054411;28;20029;-75
2022/08/08 02:58:21;;;;;;;3.25;2.08;;;21.10;71.10;;;;;;5054431;28;20022;-75
2022/08/08 03:01:08;;;;;;;2.42;1.60;;;21.10;71.10;;;;;;5054067;28;20037;-75
2022/08/08 03:03:52;;;;;;;2.80;1.73;;;21.10;71.20;;;;;;5054162;28;20076;-75
2022/08/08 03:06:50;;;;;;;8.13;2.80;;;21.10;71.30;;;;;;5054206;28;20017;-75
2022/08/08 03:09:59;;;;;;;3.25;1.50;;;21.00;71.40;;;;;;5054214;28;20189;-75
2022/08/08 03:12:52;;;;;;;3.88;1.90;;;21.00;71.60;;;;;;5053724;28;20025;-75
2022/08/08 03:15:55;;;;;;;4.07;2.30;;;21.00;71.50;;;;;;5053957;28;20376;-75
2022/08/08 03:18:32;;;;;;;5.47;2.15;;;21.00;71.60;;;;;;5054072;28;20025;-75
2022/08/08 03:20:59;;;;;;;5.43;2.15;;;20.90;71.80;;;;;;5070314;28;20120;-75
2022/08/08 03:23:26;;;;;;;5.00;2.20;;;20.90;72.10;;;;;;5053604;28;20057;-75
2022/08/08 03:25:53;;;;;;;3.38;2.50;;;20.80;72.30;;;;;;5053986;28;20021;-75
2022/08/08 03:28:28;;;;;;;6.25;3.15;;;20.70;72.50;;;;;;5053469;28;20082;-75
2022/08/08 03:30:53;;;;;;;4.68;2.22;;;20.60;72.90;;;;;;5053400;28;20082;-76
2022/08/08 03:33:19;;;;;;;4.03;2.22;;;20.40;73.50;;;;;;5053479;28;20104;-75
2022/08/08 03:35:49;;;;;;;2.42;2.08;;;20.30;73.70;;;;;;5053558;28;20021;-75
2022/08/08 03:38:19;;;;;;;3.53;2.30;;;20.30;73.70;;;;;;5053501;28;20566;-75
2022/08/08 03:40:52;;;;;;;5.72;2.13;;;20.40;73.70;;;;;;5053281;28;20561;-75
2022/08/08 03:43:18;;;;;;;2.50;2.00;;;20.40;73.60;;;;;;5053215;28;20025;-75
2022/08/08 03:45:44;;;;;;;4.00;2.20;;;20.50;73.50;;;;;;5053346;28;20159;-75
2022/08/08 03:48:10;;;;;;;5.50;2.58;;;20.40;73.50;;;;;;5053196;28;20195;-75
2022/08/08 03:50:46;;;;;;;3.10;2.10;;;20.40;73.60;;;;;;5053316;28;20029;-75
2022/08/08 03:53:15;;;;;;;6.22;2.47;;;20.30;73.70;;;;;;5053262;28;20032;-75
2022/08/08 03:55:42;;;;;;;6.65;2.58;;;20.30;74.00;;;;;;5053290;28;20028;-75
2022/08/08 03:58:09;;;;;;;4.88;2.67;;;20.20;74.10;;;;;;5053171;28;20029;-75
2022/08/08 04:00:35;;;;;;;5.53;2.05;;;20.10;74.50;;;;;;5053371;28;20399;-75
2022/08/08 04:03:05;;;;;;;2.63;1.55;;;19.90;74.80;;;;;;5053247;28;20029;-75
2022/08/08 04:05:36;;;;;;;6.22;2.55;;;20.00;75.00;;;;;;5053430;28;20029;-75
2022/08/08 04:08:05;;;;;;;2.97;1.85;;;20.00;75.20;;;;;;5053169;28;20043;-75
2022/08/08 04:10:32;;;;;;;2.90;1.40;;;19.90;75.50;;;;;;5053259;28;20023;-76
2022/08/08 04:12:57;;;;;;;6.30;3.05;;;19.90;75.40;;;;;;5053022;28;20029;-75
2022/08/08 04:15:23;;;;;;;4.03;2.00;;;19.90;75.40;;;;;;5053387;28;20062;-75
2022/08/08 04:17:49;;;;;;;7.40;3.30;;;20.00;75.40;;;;;;5053098;28;20024;-75
2022/08/08 04:20:14;;;;;;;3.85;2.60;;;20.00;75.20;;;;;;5052733;28;20021;-75
2022/08/08 04:22:40;;;;;;;3.67;1.90;;;20.00;75.30;;;;;;5052910;28;20143;-75
2022/08/08 04:25:07;;;;;;;3.80;2.65;;;19.90;75.40;;;;;;5052820;28;20057;-75
2022/08/08 04:27:34;;;;;;;6.18;2.95;;;19.90;75.40;;;;;;5052998;28;20419;-75
2022/08/08 04:30:01;;;;;;;4.18;2.42;;;19.90;75.40;;;;;;5052913;28;20024;-75
2022/08/08 04:32:27;;;;;;;5.53;2.83;;;20.00;75.30;;;;;;5052851;28;20086;-75
2022/08/08 04:34:52;;;;;;;3.72;2.63;;;19.90;75.30;;;;;;5052817;28;20108;-75
2022/08/08 04:37:18;;;;;;;4.65;3.30;;;19.80;75.60;;;;;;5052862;28;20111;-75
2022/08/08 04:39:43;;;;;;;3.13;2.22;;;19.80;75.80;;;;;;5052745;28;20036;-76
2022/08/08 04:42:09;;;;;;;6.97;2.63;;;19.80;76.00;;;;;;5052847;28;20029;-75
2022/08/08 04:44:35;;;;;;;3.80;2.08;;;19.90;75.80;;;;;;5055691;28;20107;-75
2022/08/08 04:47:01;;;;;;;2.08;1.77;;;19.90;75.60;;;;;;5056838;28;20057;-76
2022/08/08 04:49:26;;;;;;;4.75;2.67;;;20.00;75.40;;;;;;5056548;28;20048;-76
2022/08/08 04:51:52;;;;;;;4.90;2.97;;;19.80;75.40;;;;;;5056918;28;20029;-76
2022/08/08 04:54:18;;;;;;;6.45;3.50;;;19.70;75.80;;;;;;5056718;28;20118;-75
2022/08/08 04:56:43;;;;;;;3.85;2.72;;;19.60;76.30;;;;;;5056299;28;20079;-76
2022/08/08 04:59:09;;;;;;;4.25;2.90;;;19.50;76.60;;;;;;5056699;28;20025;-76
2022/08/08 05:01:35;;;;;;;4.80;2.92;;;19.40;76.90;;;;;;5056436;28;20025;-75
2022/08/08 05:04:00;;;;;;;3.75;2.60;;;19.30;77.20;;;;;;5056243;28;20369;-76
2022/08/08 05:06:26;;;;;;;5.63;2.83;;;19.30;77.50;;;;;;5056251;28;20086;-76
2022/08/08 05:08:51;;;;;;;3.97;2.38;;;19.30;77.50;;;;;;5056155;28;20039;-76
2022/08/08 05:11:18;;;;;;;3.90;1.80;;;19.30;77.50;;;;;;5056101;28;20100;-75
2022/08/08 05:13:43;;;;;;;3.67;1.92;;;19.40;77.40;;;;;;5056385;28;20079;-76
2022/08/08 05:16:09;;;;;;;3.97;1.42;;;19.50;77.20;;;;;;5056133;28;20052;-75
2022/08/08 05:18:35;;;;;;;2.88;2.17;;;19.60;76.80;;;;;;5055773;28;20032;-76
2022/08/08 05:21:07;;;;;;;4.40;1.90;;;19.70;76.60;;;;;;5055935;28;20070;-76
2022/08/08 05:23:33;;;;;;;2.87;1.30;;;19.80;76.50;;;;;;5055795;28;20120;-75
2022/08/08 05:26:00;;;;;;;3.20;1.38;;;19.90;76.90;;;;;;5055829;28;20100;-76
2022/08/08 05:28:26;;;;;;;3.88;1.20;;;20.00;76.10;;;;;;5055795;28;20032;-76
2022/08/08 05:30:52;;;;;;;5.05;1.25;;;20.00;75.90;;;;;;5055701;28;20468;-76
2022/08/08 05:33:18;;;;;;;2.33;1.00;;;20.10;75.60;;;;;;5055813;28;20151;-76
2022/08/08 05:35:45;;;;;;;3.40;1.23;;;20.20;75.60;;;;;;5055457;28;20468;-75
2022/08/08 05:38:16;;;;;;;2.50;0.77;;;20.10;75.60;;;;;;5055782;28;20032;-75
2022/08/08 05:40:46;;;;;;;2.65;1.00;;;20.20;75.50;;;;;;5055912;28;20031;-76
2022/08/08 05:43:28;;;;;;;2.35;1.17;;;20.20;75.40;;;;;;5055583;28;20029;-75
2022/08/08 05:45:59;;;;;;;4.07;0.90;;;20.30;75.30;;;;;;5055162;28;20495;-75
2022/08/08 05:48:26;;;;;;;2.83;1.08;;;20.40;75.20;;;;;;5055723;28;20052;-74
2022/08/08 05:50:51;;;;;;;3.78;1.00;;;20.40;75.20;;;;;;5055592;28;20109;-75
2022/08/08 05:53:24;;;;;;;1.83;0.70;;;20.40;75.30;;;;;;5055395;28;20052;-75
2022/08/08 05:56:00;;;;;;;3.60;0.80;;;20.40;75.40;;;;;;5055373;28;20108;-75
2022/08/08 05:58:30;;;;;;;4.30;0.80;;;20.40;75.30;;;;;;5055329;28;20028;-75
2022/08/08 06:00:59;;;;;;;2.30;1.10;;;20.40;75.40;;;;;;5055470;28;20035;-76
2022/08/08 06:03:25;;;;;;;7.43;1.00;;;20.40;75.70;;;;;;5055251;28;20025;-75
2022/08/08 06:06:05;;;;;;;3.20;1.08;;;20.30;75.90;;;;;;5054936;28;20060;-75
2022/08/08 06:08:46;;;;;;;6.15;0.95;;;20.30;76.40;;;;;;5055411;28;20033;-75
2022/08/08 06:11:12;;;;;;;3.38;0.77;;;20.10;77.10;;;;;;5055355;28;20021;-76
2022/08/08 06:13:37;;;;;;;8.05;1.48;;;19.80;77.90;;;;;;5055345;28;20032;-76
2022/08/08 06:16:04;;;;;;;3.28;1.10;;;19.70;78.30;;;;;;5055297;28;20464;-75
2022/08/08 06:18:30;;;;;;;4.53;0.82;;;19.80;78.50;;;;;;5055267;28;20025;-75
2022/08/08 06:20:59;;;;;;;3.60;0.88;;;19.80;78.70;;;;;;5054640;28;20032;-75
2022/08/08 06:23:26;;;;;;;5.82;0.70;;;19.70;78.60;;;;;;5054718;28;20106;-75
2022/08/08 06:26:02;;;;;;;4.40;0.50;;;19.80;78.50;;;;;;5055228;28;20158;-75
2022/08/08 06:28:33;;;;;;;3.22;0.57;;;19.70;78.60;;;;;;5054591;28;20065;-74
2022/08/08 06:31:04;;;;;;;3.65;0.60;;;19.70;78.60;;;;;;5054905;28;20384;-75
2022/08/08 06:33:55;;;;;;;3.05;0.73;;;19.80;78.90;;;;;;5054576;28;20029;-75
2022/08/08 06:36:34;;;;;;;3.83;0.70;;;19.90;78.70;;;;;;5051409;28;20029;-75
2022/08/08 06:39:01;;;;;;;1.98;0.57;;;20.00;78.40;;;;;;5054881;28;20404;-75
2022/08/08 06:41:30;;;;;;;3.20;0.63;;;20.10;78.30;;;;;;5054844;28;20124;-75
2022/08/08 06:43:59;;;;;;;3.33;0.50;;;20.30;78.00;;;;;;5054108;28;20029;-75
2022/08/08 06:46:25;;;;;;;3.90;0.70;;;20.40;77.40;;;;;;5054290;28;20025;-74
2022/08/08 06:48:51;;;;;;;6.18;0.85;;;20.50;77.30;;;;;;5054608;28;20039;-75
2022/08/08 06:51:18;;;;;;;3.30;0.68;;;20.50;77.20;;;;;;5054505;28;20071;-75
2022/08/08 06:53:45;;;;;;;3.70;0.50;;;20.50;77.40;;;;;;5053975;28;20579;-75
2022/08/08 06:56:10;;;;;;;3.53;0.40;;;20.50;77.40;;;;;;5053871;28;20029;-76
2022/08/08 06:58:36;;;;;;;3.33;0.70;;;20.60;77.30;;;;;;5053969;28;20037;-75
2022/08/08 07:01:04;;;;;;;2.92;0.77;;;20.60;77.30;;;;;;5054228;28;20059;-75
2022/08/08 07:03:41;;;;;;;2.63;0.60;;;20.70;77.50;;;;;;5054247;28;20086;-75
2022/08/08 07:06:09;;;;;;;4.60;0.80;;;20.70;77.40;;;;;;5053538;28;20060;-75
2022/08/08 07:08:42;;;;;;;3.15;0.50;;;20.80;76.50;;;;;;5054057;28;20037;-75
2022/08/08 07:11:10;;;;;;;2.80;0.50;;;20.90;77.00;;;;;;5054203;28;20423;-75
2022/08/08 07:13:38;;;;;;;3.70;0.77;;;20.90;76.50;;;;;;5054157;28;20101;-75
2022/08/08 07:16:20;;;;;;;4.32;0.73;;;21.00;75.90;;;;;;5053868;28;20025;-75
2022/08/08 07:19:20;;;;;;;3.77;0.90;;;21.20;75.60;;;;;;5053575;28;20025;-75
2022/08/08 07:21:55;;;;;;;4.80;0.75;;;21.20;75.50;;;;;;5054052;28;20090;-75
2022/08/08 07:24:28;;;;;;;5.90;0.88;;;21.30;75.20;;;;;;5053556;28;20124;-75
2022/08/08 07:26:57;;;;;;;4.25;0.80;;;21.40;75.60;;;;;;5053594;28;20072;-74
2022/08/08 07:29:23;;;;;;;4.32;0.52;;;21.50;74.40;;;;;;5053823;28;20409;-75
2022/08/08 07:31:49;;;;;;;5.57;0.90;;;21.50;74.50;;;;;;5053329;28;20079;-74
2022/08/08 07:34:16;;;;;;;5.18;0.93;;;21.60;74.20;;;;;;5053322;28;20021;-74
2022/08/08 07:36:42;;;;;;;3.85;0.60;;;21.70;73.30;;;;;;5053713;28;20025;-75
2022/08/08 07:39:09;;;;;;;4.25;0.90;;;21.80;73.10;;;;;;5053357;28;20107;-75
2022/08/08 07:41:40;;;;;;;4.03;0.80;;;21.90;73.30;;;;;;5053611;28;20028;-75
2022/08/08 07:44:07;;;;;;;3.20;0.57;;;21.90;72.50;;;;;;5053292;28;20029;-75
2022/08/08 07:46:32;;;;;;;3.63;0.50;;;22.00;72.30;;;;;;5052992;28;20028;-75
2022/08/08 07:48:58;;;;;;;5.80;0.85;;;22.10;71.60;;;;;;5053363;28;20036;-75
2022/08/08 07:51:25;;;;;;;3.13;0.47;;;22.10;71.80;;;;;;5052851;28;20029;-75
2022/08/08 07:54:11;;;;;;;2.33;0.40;;;22.20;71.60;;;;;;5053545;28;20079;-75
2022/08/08 07:57:02;;;;;;;3.47;0.73;;;22.20;70.50;;;;;;5052973;28;20194;-75
2022/08/08 07:59:34;;;;;;;6.07;0.80;;;22.20;70.10;;;;;;5053493;28;20032;-75
2022/08/08 08:02:04;;;;;;;1.67;0.40;;;22.20;69.60;;;;;;5053316;28;20028;-75
2022/08/08 08:04:33;;;;;;;2.30;0.68;;;22.20;69.80;;;;;;5053406;28;20474;-75
2022/08/08 08:07:02;;;;;;;3.80;0.63;;;22.30;69.60;;;;;;5052806;28;20492;-75
2022/08/08 08:09:37;;;;;;;4.05;0.80;;;22.20;70.00;;;;;;5052928;28;20094;-75
2022/08/08 08:12:03;;;;;;;3.63;0.50;;;22.30;69.10;;;;;;5053226;28;20025;-75
2022/08/08 08:14:39;;;;;;;7.13;0.75;;;22.40;69.70;;;;;;5053267;28;20028;-75
2022/08/08 08:17:08;;;;;;;2.97;0.45;;;22.40;70.10;;;;;;5052989;28;20490;-76
2022/08/08 08:19:35;;;;;;;3.75;0.50;;;22.50;69.00;;;;;;5055996;28;20102;-75
2022/08/08 08:22:01;;;;;;;7.38;0.85;;;22.60;68.70;;;;;;5057361;28;20031;-75
2022/08/08 08:24:26;;;;;;;1.77;0.57;;;22.60;69.40;;;;;;5057120;28;20476;-75
2022/08/08 08:26:52;;;;;;;7.10;0.70;;;22.60;68.50;;;;;;5056939;28;20087;-76
2022/08/08 08:29:18;;;;;;;5.07;0.47;;;22.50;68.20;;;;;;5057153;28;20037;-72
2022/08/08 08:31:43;;;;;;;3.30;0.40;;;22.60;68.30;;;;;;5057266;28;20025;-72
2022/08/08 08:34:09;;;;;;;2.92;0.47;;;22.70;69.20;;;;;;5057027;28;20388;-72
2022/08/08 08:36:34;;;;;;;3.75;0.50;;;22.80;68.50;;;;;;5057141;28;20025;-76
2022/08/08 08:39:00;;;;;;;3.60;0.45;;;22.90;67.20;;;;;;5056601;28;20413;-76
2022/08/08 08:41:28;;;;;;;4.03;0.60;;;23.00;66.80;;;;;;5056625;28;20120;-76
2022/08/08 08:43:56;;;;;;;2.22;0.25;;;23.10;66.70;;;;;;5056784;28;20032;-76
2022/08/08 08:46:23;;;;;;;4.90;0.30;;;23.10;65.70;;;;;;5056561;28;20501;-76
2022/08/08 08:48:50;;;;;;;1.73;0.35;;;23.10;66.40;;;;;;5056585;28;20032;-76
2022/08/08 08:51:16;;;;;;;1.58;0.20;;;23.20;65.20;;;;;;5056878;28;20059;-76
2022/08/08 08:53:49;;;;;;;2.75;0.40;;;23.30;64.30;;;;;;5056703;28;20028;-76
2022/08/08 08:56:15;;;;;;;;;;;23.30;63.90;;;;;;5057359;28;20049;-76
2022/08/08 08:58:43;;;;;;;1.55;0.50;;;23.40;64.30;;;;;;5056835;28;19947;-76
2022/08/08 09:01:11;;;;;;;3.58;0.30;;;23.50;63.60;;;;;;5056791;28;20021;-76
2022/08/08 09:03:42;;;;;;;1.83;0.10;;;23.50;62.10;;;;;;5056256;28;20361;-76
2022/08/08 09:06:12;;;;;;;2.63;0.45;;;23.40;63.50;;;;;;5056441;28;20084;-76
2022/08/08 09:08:39;;;;;;;1.33;0.20;;;23.40;62.80;;;;;;5056101;28;20036;-75
2022/08/08 09:11:08;;;;;;;1.52;0.22;;;23.40;63.00;;;;;;5056504;28;20373;-76
2022/08/08 09:13:35;;;;;;;3.58;0.20;;;23.40;63.40;;;;;;5056379;28;20021;-76
2022/08/08 09:16:02;;;;;;;1.85;0.20;;;23.60;62.60;;;;;;5056342;28;20095;-76
2022/08/08 09:18:31;;;;;;;3.88;0.20;;;23.80;62.40;;;;;;5056192;28;20028;-76
2022/08/08 09:20:59;;;;;;;1.60;0.20;;;24.00;61.40;;;;;;5056083;28;20330;-76
2022/08/08 09:23:25;;;;;;;3.25;0.20;;;24.00;60.10;;;;;;5056117;28;20048;-76
2022/08/08 09:26:20;;;;;;;1.38;0.20;;;24.10;61.00;;;;;;5056252;28;20128;-76
2022/08/08 09:28:45;;;;;;;0.52;0.10;;;24.40;61.00;;;;;;5052723;28;20425;-77
2022/08/08 09:31:22;;;;;;;1.42;0.20;;;24.50;59.80;;;;;;5055605;28;20067;-77
2022/08/08 09:33:51;;;;;;;2.38;0.20;;;24.60;59.40;;;;;;5056112;28;20120;-77
2022/08/08 09:36:24;;;;;;;2.83;0.20;;;24.40;59.30;;;;;;5055809;28;20112;-76
2022/08/08 09:38:58;;;;;;;0.82;0.20;;;24.30;59.80;;;;;;5055652;28;20384;-76
2022/08/08 09:41:40;;;;;;;2.33;0.20;;;24.30;60.10;;;;;;5055758;28;20029;-76
2022/08/08 09:44:19;;;;;;;;;;;24.30;60.90;;;;;;5056361;28;20102;-76
2022/08/08 09:46:49;;;;;;;1.98;0.30;;;24.30;59.90;;;;;;5055667;28;20279;-76
2022/08/08 09:49:19;;;;;;;2.05;0.20;;;24.20;59.90;;;;;;5055522;28;20024;-77
2022/08/08 09:51:52;;;;;;;2.83;0.20;;;24.20;61.00;;;;;;5055641;28;20029;-76
2022/08/08 09:54:21;;;;;;;1.13;0.10;;;24.10;60.40;;;;;;5055607;28;20096;-76
2022/08/08 09:56:53;;;;;;;2.33;0.30;;;24.10;60.80;;;;;;5055680;28;20025;-76
2022/08/08 09:59:28;;;;;;;1.45;0.20;;;24.10;60.60;;;;;;5055578;28;20021;-76
2022/08/08 10:01:58;;;;;;;1.17;0.20;;;24.10;60.70;;;;;;5055277;28;20075;-76
2022/08/08 10:04:26;;;;;;;2.25;0.32;;;24.00;61.00;;;;;;5055510;28;20025;-76
2022/08/08 10:06:52;;;;;;;1.63;0.20;;;24.00;61.20;;;;;;5054965;28;20476;-76
2022/08/08 10:09:40;;;;;;;3.92;0.55;;;24.00;61.20;;;;;;5055393;28;20083;-76
2022/08/08 10:12:06;;;;;;;1.13;0.15;;;23.90;61.00;;;;;;5055022;28;20048;-76
2022/08/08 10:14:37;;;;;;;4.68;0.20;;;23.90;62.00;;;;;;5054765;28;20033;-76
2022/08/08 10:17:05;;;;;;;2.20;0.20;;;23.80;61.90;;;;;;5055074;28;20531;-76
2022/08/08 10:19:36;;;;;;;2.40;0.30;;;23.70;61.70;;;;;;5054940;28;20044;-76
2022/08/08 10:22:06;;;;;;;2.13;0.20;;;23.60;61.30;;;;;;5054723;28;20108;-76
2022/08/08 10:24:33;;;;;;;1.48;0.20;;;23.50;61.60;;;;;;5054788;28;20049;-76
2022/08/08 10:27:04;;;;;;;2.00;0.20;;;23.60;62.70;;;;;;5054774;28;20122;-77
2022/08/08 10:29:43;;;;;;;1.52;0.20;;;23.70;62.20;;;;;;5054749;28;20064;-76
2022/08/08 10:35:00;;;;;;;2.83;0.20;;;23.70;61.60;;;;;;5054746;28;20032;-75
2022/08/08 10:37:34;;;;;;;1.13;0.20;;;23.90;60.80;;;;;;5054563;28;20025;-76
2022/08/08 10:40:12;;;;;;;2.03;0.30;;;23.90;61.30;;;;;;5054657;28;20021;-76
2022/08/08 10:42:40;;;;;;;1.00;0.28;;;23.90;60.30;;;;;;5053732;28;20033;-76
2022/08/08 10:45:07;;;;;;;3.60;0.28;;;23.80;60.20;;;;;;5054489;28;20041;-77
2022/08/08 10:47:33;;;;;;;3.90;0.40;;;23.80;59.90;;;;;;5054334;28;20163;-76
2022/08/08 10:50:04;;;;;;;1.42;0.40;;;23.80;60.50;;;;;;5054247;28;20048;-76
2022/08/08 10:52:35;;;;;;;3.08;0.30;;;23.80;60.70;;;;;;5054134;28;20593;-76
2022/08/08 10:55:05;;;;;;;1.65;0.30;;;23.80;60.80;;;;;;5054298;28;20035;-76
2022/08/08 10:57:36;;;;;;;2.38;0.20;;;23.80;61.80;;;;;;5054331;28;20021;-76
2022/08/08 11:00:04;;;;;;;1.77;0.20;;;23.90;61.20;;;;;;5054081;28;20024;-77
2022/08/08 11:02:32;;;;;;;3.28;0.20;;;23.80;61.00;;;;;;5053919;28;20424;-76
2022/08/08 11:05:00;;;;;;;3.90;0.20;;;23.80;62.20;;;;;;5054156;28;20108;-76
2022/08/08 11:07:31;;;;;;;1.70;0.20;;;23.90;60.80;;;;;;5054301;28;20041;-75
2022/08/08 11:10:02;;;;;;;1.20;0.20;;;23.90;60.80;;;;;;5053725;28;20028;-75
2022/08/08 11:12:28;;;;;;;2.15;0.30;;;24.00;60.30;;;;;;5054301;28;20074;-75
2022/08/08 11:14:56;;;;;;;1.05;0.10;;;24.10;59.60;;;;;;5053690;28;20424;-75
2022/08/08 11:17:25;;;;;;;2.17;0.30;;;24.20;59.20;;;;;;5053907;28;20021;-75
2022/08/08 11:19:52;;;;;;;1.60;0.50;;;24.20;59.10;;;;;;5053931;28;20082;-75
2022/08/08 11:22:25;;;;;;;1.77;0.30;;;24.40;59.90;;;;;;5054039;28;20025;-76
2022/08/08 11:24:54;;;;;;;1.33;0.32;;;24.50;59.40;;;;;;5053193;28;20174;-76
2022/08/08 11:27:24;;;;;;;4.55;0.30;;;24.30;59.60;;;;;;5053491;28;20068;-76
2022/08/08 11:29:55;;;;;;;3.13;0.30;;;24.30;59.70;;;;;;5053939;28;20096;-77
2022/08/08 11:32:25;;;;;;;3.05;0.20;;;24.30;59.80;;;;;;5053848;28;20052;-76
2022/08/08 11:34:57;;;;;;;1.10;0.20;;;24.30;59.80;;;;;;5053372;28;20483;-76
2022/08/08 11:37:24;;;;;;;1.05;0.20;;;24.40;60.80;;;;;;5053815;28;20033;-76
2022/08/08 11:39:51;;;;;;;1.40;0.20;;;24.70;58.90;;;;;;5053567;28;20021;-76
2022/08/08 11:42:18;;;;;;;0.90;0.10;;;24.90;58.70;;;;;;5053606;28;20173;-76
2022/08/08 11:44:44;;;;;;;0.65;0.20;;;25.10;57.70;;;;;;5053461;28;20029;-76
2022/08/08 11:47:11;;;;;;;4.53;0.25;;;25.00;57.30;;;;;;5053297;28;20091;-76
2022/08/08 11:49:39;;;;;;;2.42;0.30;;;25.00;57.70;;;;;;5053263;28;20032;-76
2022/08/08 11:52:06;;;;;;;3.67;0.40;;;25.10;57.60;;;;;;5053498;28;20032;-76
2022/08/08 11:54:33;;;;;;;2.03;0.20;;;25.00;57.50;;;;;;5053187;28;20029;-76
2022/08/08 11:57:17;;;;;;;3.22;0.30;;;24.90;57.80;;;;;;5053186;28;20480;-76
2022/08/08 11:59:56;;;;;;;2.05;0.38;;;24.60;58.00;;;;;;5053400;28;20037;-76
2022/08/08 12:02:24;;;;;;;1.83;0.40;;;24.40;59.00;;;;;;5053480;28;20048;-76
2022/08/08 12:05:05;;;;;;;2.70;0.20;;;24.20;58.70;;;;;;5052755;28;20036;-76
2022/08/08 12:07:43;;;;;;;1.87;0.23;;;24.10;59.00;;;;;;5053389;28;20075;-76
2022/08/08 12:10:13;;;;;;;1.13;0.20;;;24.20;58.90;;;;;;5053171;28;20036;-76
2022/08/08 12:12:43;;;;;;;3.13;0.20;;;24.30;58.50;;;;;;5052965;28;20029;-76
2022/08/08 12:15:12;;;;;;;1.20;0.20;;;24.50;59.10;;;;;;5052762;28;20465;-76
2022/08/08 12:17:40;;;;;;;4.18;0.20;;;24.80;58.90;;;;;;5053225;28;20029;-76
2022/08/08 12:20:07;;;;;;;1.33;0.20;;;25.20;57.80;;;;;;5053202;28;20071;-77
2022/08/08 12:22:33;;;;;;;3.25;0.20;;;25.50;56.00;;;;;;5053162;28;20021;-76
2022/08/08 12:25:00;;;;;;;0.98;0.10;;;25.60;56.30;;;;;;5052766;28;20049;-77
2022/08/08 12:27:39;;;;;;;5.20;0.40;;;25.60;56.10;;;;;;5052920;28;20075;-76
2022/08/08 12:30:05;;;;;;;1.85;0.20;;;25.50;56.10;;;;;;5053214;28;20055;-76
2022/08/08 12:32:41;;;;;;;2.88;0.20;;;25.40;56.40;;;;;;5053125;28;20072;-76
2022/08/08 12:35:16;;;;;;;1.90;0.40;;;25.20;56.30;;;;;;5052883;28;20075;-77
2022/08/08 12:37:42;;;;;;;1.67;0.20;;;25.10;56.30;;;;;;5052864;28;20051;-77
2022/08/08 12:40:16;;;;;;;1.27;0.28;;;25.00;57.10;;;;;;5052547;28;20021;-77
2022/08/08 12:42:46;;;;;;;2.15;0.20;;;24.90;56.80;;;;;;5053130;28;20039;-76
2022/08/08 12:45:12;;;;;;;1.30;0.20;;;25.00;55.10;;;;;;5052632;28;20487;-76
2022/08/08 12:47:37;;;;;;;1.55;0.20;;;25.20;56.60;;;;;;5052755;28;20033;-77
2022/08/08 12:50:03;;;;;;;2.20;0.13;;;25.40;55.90;;;;;;5052953;28;20017;-77
2022/08/08 12:52:40;;;;;;;1.25;0.20;;;25.90;55.70;;;;;;5052666;28;20025;-76
2022/08/08 12:55:10;;;;;;;2.38;0.40;;;26.00;53.90;;;;;;5052916;28;20379;-77
2022/08/08 12:57:37;;;;;;;2.95;0.25;;;25.90;53.80;;;;;;5052399;28;20035;-77
2022/08/08 13:00:05;;;;;;;2.13;0.20;;;25.70;54.30;;;;;;5052610;28;20427;-77
2022/08/08 13:02:34;;;;;;;3.33;0.20;;;25.70;54.40;;;;;;5052558;28;20025;-77
2022/08/08 13:05:03;;;;;;;2.42;0.20;;;25.70;54.20;;;;;;5054705;28;20078;-77
2022/08/08 13:07:47;;;;;;;1.95;0.17;;;25.70;54.30;;;;;;5055937;28;20033;-76
2022/08/08 13:10:15;;;;;;;1.38;0.20;;;25.70;54.30;;;;;;5056198;28;20017;-77
2022/08/08 13:12:43;;;;;;;1.20;0.20;;;25.60;54.00;;;;;;5056550;28;20033;-77
2022/08/08 13:15:11;;;;;;;1.70;0.20;;;25.70;55.20;;;;;;5055851;28;20111;-77
2022/08/08 13:17:38;;;;;;;1.65;0.20;;;26.00;55.20;;;;;;5056201;28;20039;-77
2022/08/08 13:20:12;;;;;;;1.60;0.20;;;26.30;53.80;;;;;;5056387;28;20025;-77
2022/08/08 13:22:38;;;;;;;2.05;0.10;;;26.20;53.50;;;;;;5056179;28;20028;-77